Time;durP1;ratioP1;P1;durP2;ratioP2;P2;SDS_P1;SDS_P2;PMS_P1;PMS_P2;Temp;Humidity;BMP_temperature;BMP_pressure;BME280_temperature;BME280_humidity;BME280_pressure;Samples;Min_cycle;Max_cycle;Signal;HPM_P1;HPM_P2
2023/10/26 00:01:13;;;;;;;83.03;44.13;;;;;;;8.68;100.00;99143.91;10461680;28;20052;-79
2023/10/26 00:06:14;;;;;;;88.60;46.25;;;;;;;8.64;100.00;99150.75;10469410;28;20109;-80
2023/10/26 00:11:14;;;;;;;84.55;45.58;;;;;;;8.63;100.00;99146.38;10459136;28;20071;-79
2023/10/26 00:16:15;;;;;;;88.68;44.83;;;;;;;8.62;100.00;99161.16;10453392;28;20033;-80
2023/10/26 00:21:15;;;;;;;88.93;43.45;;;;;;;8.63;100.00;99164.63;10461526;28;20124;-79
2023/10/26 00:26:16;;;;;;;84.78;44.72;;;;;;;8.59;100.00;99160.16;10464799;28;20493;-79
2023/10/26 00:31:16;;;;;;;92.20;49.10;;;;;;;8.59;100.00;99168.88;10467101;28;20044;-80
2023/10/26 00:36:17;;;;;;;96.78;45.15;;;;;;;8.55;100.00;99177.47;10460296;28;20131;-79
2023/10/26 00:41:17;;;;;;;87.60;44.17;;;;;;;8.54;100.00;99182.63;10448698;28;20139;-79
2023/10/26 00:46:18;;;;;;;93.07;48.42;;;;;;;8.47;100.00;99186.75;10472310;28;20127;-79
2023/10/26 00:51:18;;;;;;;95.00;47.95;;;;;;;8.45;100.00;99197.13;10428113;28;20132;-79
2023/10/26 00:56:20;;;;;;;88.32;46.15;;;;;;;8.49;100.00;99200.75;10448541;28;20119;-80
2023/10/26 01:01:21;;;;;;;91.95;46.88;;;;;;;8.48;100.00;99207.63;10446995;28;20110;-80
2023/10/26 01:06:21;;;;;;;91.32;47.83;;;;;;;8.49;100.00;99213.78;10448887;28;20210;-80
2023/10/26 01:11:22;;;;;;;84.10;44.63;;;;;;;8.49;100.00;99219.88;10471974;28;20067;-80
2023/10/26 01:16:22;;;;;;;90.18;44.50;;;;;;;8.46;100.00;99227.56;10441615;28;20492;-80
2023/10/26 01:21:24;;;;;;;92.30;46.17;;;;;;;8.47;100.00;99221.50;10467762;28;20119;-80
2023/10/26 01:26:25;;;;;;;;;;;;;;;8.45;100.00;99232.75;10432989;28;20044;-79
2023/10/26 01:31:25;;;;;;;77.70;41.42;;;;;;;8.40;100.00;99223.91;10458419;28;19921;-79
2023/10/26 01:36:26;;;;;;;74.25;40.40;;;;;;;8.37;100.00;99220.38;10468486;28;20120;-79
2023/10/26 01:41:31;;;;;;;80.05;37.15;;;;;;;8.38;100.00;99216.94;10465462;28;20056;-79
2023/10/26 01:46:31;;;;;;;76.93;38.97;;;;;;;8.30;100.00;99213.19;10441243;28;20139;-79
2023/10/26 01:51:32;;;;;;;81.47;36.55;;;;;;;8.23;100.00;99216.47;10430337;28;20039;-79
2023/10/26 01:56:33;;;;;;;65.40;37.70;;;;;;;8.20;100.00;99216.38;10462617;28;20048;-79
2023/10/26 02:01:33;;;;;;;74.25;37.35;;;;;;;8.19;100.00;99223.28;10468628;28;20124;-79
2023/10/26 02:06:34;;;;;;;62.80;34.20;;;;;;;8.10;100.00;99216.91;10465170;28;20123;-79
2023/10/26 02:11:34;;;;;;;59.13;32.65;;;;;;;8.03;100.00;99224.53;10476961;28;20039;-79
2023/10/26 02:16:35;;;;;;;65.32;34.58;;;;;;;8.00;100.00;99236.56;10443460;28;20127;-80
2023/10/26 02:21:35;;;;;;;68.78;34.70;;;;;;;8.01;100.00;99240.94;10475798;28;20119;-80
2023/10/26 02:26:36;;;;;;;64.20;35.08;;;;;;;8.00;100.00;99241.78;10467160;28;20073;-81
2023/10/26 02:31:36;;;;;;;68.55;37.72;;;;;;;7.95;100.00;99233.84;10460269;28;20036;-80
2023/10/26 02:36:37;;;;;;;66.90;34.72;;;;;;;7.97;100.00;99223.44;10465272;28;20492;-79
2023/10/26 02:41:37;;;;;;;75.93;34.35;;;;;;;7.97;100.00;99234.78;10453462;28;20143;-79
2023/10/26 02:46:38;;;;;;;73.72;38.30;;;;;;;7.96;100.00;99240.81;10482436;28;20063;-80
2023/10/26 02:51:38;;;;;;;70.20;35.17;;;;;;;7.96;100.00;99234.72;10473906;28;20045;-79
2023/10/26 02:56:39;;;;;;;71.40;35.78;;;;;;;7.98;100.00;99238.25;10466617;28;20127;-79
2023/10/26 03:01:39;;;;;;;78.43;37.42;;;;;;;7.96;100.00;99235.59;10452606;28;20116;-79
2023/10/26 03:06:40;;;;;;;58.30;31.60;;;;;;;7.97;100.00;99233.88;10471126;28;20644;-79
2023/10/26 03:11:41;;;;;;;57.90;33.03;;;;;;;7.92;100.00;99236.34;10469676;28;20046;-79
2023/10/26 03:16:41;;;;;;;55.00;28.17;;;;;;;7.76;100.00;99232.34;10446636;28;20435;-79
2023/10/26 03:21:42;;;;;;;53.35;30.17;;;;;;;7.56;100.00;99227.34;10438537;28;20075;-79
2023/10/26 03:26:42;;;;;;;57.78;29.92;;;;;;;7.34;100.00;99237.03;10478361;28;20458;-79
2023/10/26 03:31:43;;;;;;;66.75;33.45;;;;;;;7.09;100.00;99229.22;10471835;28;20123;-80
2023/10/26 03:36:44;;;;;;;65.10;32.90;;;;;;;6.84;100.00;99221.44;10442543;28;20033;-81
2023/10/26 03:41:44;;;;;;;57.65;30.63;;;;;;;6.65;100.00;99217.25;10463023;28;20765;-81
2023/10/26 03:46:46;;;;;;;63.67;30.10;;;;;;;6.66;100.00;99223.38;10475623;28;20136;-80
2023/10/26 03:51:47;;;;;;;51.20;26.80;;;;;;;6.46;100.00;99220.91;10482685;28;20036;-81
2023/10/26 03:56:48;;;;;;;75.57;32.28;;;;;;;6.37;100.00;99217.97;10448455;28;20462;-81
2023/10/26 04:01:48;;;;;;;51.55;28.08;;;;;;;6.22;100.00;99224.34;10452253;28;20179;-78
2023/10/26 04:06:49;;;;;;;61.47;31.23;;;;;;;6.17;100.00;99218.94;10470037;28;20115;-82
2023/10/26 04:11:49;;;;;;;68.47;30.85;;;;;;;6.10;100.00;99218.66;10470677;28;20163;-80
2023/10/26 04:16:50;;;;;;;67.45;31.90;;;;;;;5.99;100.00;99223.38;10429684;28;20187;-80
2023/10/26 04:21:50;;;;;;;58.53;30.98;;;;;;;5.81;100.00;99218.38;10461079;28;20132;-81
2023/10/26 04:26:51;;;;;;;73.15;31.58;;;;;;;5.71;100.00;99210.19;10466454;28;20131;-82
2023/10/26 04:31:51;;;;;;;66.28;25.65;;;;;;;5.72;100.00;99217.16;10456566;28;20536;-82
2023/10/26 04:36:52;;;;;;;66.15;30.05;;;;;;;5.46;100.00;99218.69;10450358;28;20567;-81
2023/10/26 04:41:52;;;;;;;69.03;32.53;;;;;;;5.39;100.00;99222.75;10458341;28;20136;-78
2023/10/26 04:46:53;;;;;;;62.63;28.25;;;;;;;5.42;100.00;99217.69;10465084;28;20116;-81
2023/10/26 04:51:53;;;;;;;59.42;28.27;;;;;;;5.28;100.00;99229.19;10470691;28;20136;-80
2023/10/26 04:56:54;;;;;;;59.15;26.73;;;;;;;5.04;100.00;99213.44;10436099;28;20492;-81
2023/10/26 05:01:55;;;;;;;53.30;27.25;;;;;;;5.21;100.00;99214.19;10425347;28;20056;-80
2023/10/26 05:06:55;;;;;;;56.17;27.10;;;;;;;5.05;100.00;99213.53;10431710;28;20063;-81
2023/10/26 05:11:56;;;;;;;52.17;24.42;;;;;;;5.00;100.00;99210.72;10431501;28;20488;-79
2023/10/26 05:16:56;;;;;;;63.42;29.30;;;;;;;4.90;100.00;99205.94;10432863;28;20053;-79
2023/10/26 05:21:57;;;;;;;95.28;35.47;;;;;;;4.89;100.00;99195.53;10428664;28;20056;-80
2023/10/26 05:26:57;;;;;;;76.88;32.80;;;;;;;4.84;100.00;99198.81;10396490;28;20063;-79
2023/10/26 05:31:57;;;;;;;73.65;32.00;;;;;;;4.79;100.00;99196.81;10416669;28;20373;-79
2023/10/26 05:36:58;;;;;;;66.68;30.83;;;;;;;4.66;100.00;99196.28;10433943;28;20078;-79
2023/10/26 05:41:59;;;;;;;78.40;27.55;;;;;;;4.47;100.00;99183.31;10424834;28;20044;-81
2023/10/26 05:46:59;;;;;;;83.05;27.20;;;;;;;4.28;100.00;99197.16;10406022;28;20052;-82
2023/10/26 05:52:01;;;;;;;107.65;29.70;;;;;;;4.25;100.00;99182.34;10411493;28;20050;-79
2023/10/26 05:57:02;;;;;;;54.50;25.42;;;;;;;4.32;100.00;99178.34;10424160;28;20045;-79
2023/10/26 06:02:03;;;;;;;85.45;33.80;;;;;;;4.35;100.00;99173.28;10438880;28;20067;-80
2023/10/26 06:07:03;;;;;;;65.97;28.20;;;;;;;4.35;100.00;99184.53;10432868;28;20105;-81
2023/10/26 06:12:04;;;;;;;84.13;38.92;;;;;;;4.36;100.00;99190.63;10425447;28;20036;-79
2023/10/26 06:17:05;;;;;;;82.57;32.60;;;;;;;4.32;100.00;99201.66;10409118;28;20106;-79
2023/10/26 06:22:05;;;;;;;118.32;36.15;;;;;;;4.19;100.00;99189.81;10403242;28;20049;-79
2023/10/26 06:27:07;;;;;;;90.25;35.53;;;;;;;4.20;100.00;99182.13;10451785;28;20055;-79
2023/10/26 06:32:08;;;;;;;64.47;27.45;;;;;;;4.30;100.00;99186.03;10414148;28;21903;-80
2023/10/26 06:37:08;;;;;;;66.10;30.35;;;;;;;4.23;100.00;99189.16;10425699;28;20091;-80
2023/10/26 06:42:09;;;;;;;88.20;35.35;;;;;;;4.21;100.00;99188.19;10396778;28;20063;-80
2023/10/26 06:47:09;;;;;;;75.47;33.47;;;;;;;4.21;100.00;99180.41;10419316;28;20054;-79
2023/10/26 06:52:10;;;;;;;98.40;21.77;;;;;;;4.09;100.00;99180.75;10435637;28;21682;-80
2023/10/26 06:57:10;;;;;;;54.75;19.73;;;;;;;3.96;100.00;99181.88;10418889;28;20121;-79
2023/10/26 07:02:12;;;;;;;51.70;20.83;;;;;;;4.01;100.00;99169.16;10415728;28;21696;-79
2023/10/26 07:07:14;;;;;;;44.90;23.23;;;;;;;4.16;100.00;99162.09;10434263;28;20036;-79
2023/10/26 07:12:15;;;;;;;127.50;21.83;;;;;;;4.41;100.00;99164.09;10414728;28;20286;-78
2023/10/26 07:17:15;;;;;;;166.63;32.97;;;;;;;4.50;100.00;99157.53;10415908;28;20603;-80
2023/10/26 07:22:16;;;;;;;91.75;28.58;;;;;;;4.89;100.00;99147.13;10432087;28;20049;-80
2023/10/26 07:27:16;;;;;;;52.58;22.20;;;;;;;5.11;100.00;99168.78;10412569;28;20094;-80
2023/10/26 07:32:17;;;;;;;64.53;26.10;;;;;;;5.32;100.00;99165.31;10435243;28;20044;-80
2023/10/26 07:37:17;;;;;;;118.22;37.97;;;;;;;5.57;100.00;99164.63;10420294;28;20041;-80
2023/10/26 07:42:18;;;;;;;69.40;31.45;;;;;;;5.75;100.00;99167.06;10460302;28;20043;-80
2023/10/26 07:47:18;;;;;;;108.57;40.80;;;;;;;6.06;100.00;99168.28;10456313;28;20138;-79
2023/10/26 07:52:19;;;;;;;93.47;39.10;;;;;;;6.45;100.00;99159.34;10451431;28;20514;-79
2023/10/26 07:57:20;;;;;;;71.95;30.67;;;;;;;6.65;100.00;99172.19;10458093;28;20547;-81
2023/10/26 08:02:20;;;;;;;104.05;45.10;;;;;;;6.93;100.00;99173.19;10468483;28;20153;-81
2023/10/26 08:07:21;;;;;;;184.80;67.47;;;;;;;7.28;100.00;99169.16;10418898;28;20036;-81
2023/10/26 08:12:21;;;;;;;109.13;41.13;;;;;;;7.59;100.00;99179.72;10470291;28;20131;-80
2023/10/26 08:17:22;;;;;;;190.05;77.40;;;;;;;7.79;100.00;99170.84;10444740;28;20028;-80
2023/10/26 08:22:22;;;;;;;228.32;85.13;;;;;;;7.94;100.00;99193.84;10439828;28;20042;-80
2023/10/26 08:27:23;;;;;;;217.50;78.22;;;;;;;8.03;100.00;99192.38;10458988;28;20135;-80
2023/10/26 08:32:24;;;;;;;187.00;74.80;;;;;;;8.08;100.00;99199.50;10441891;28;20480;-79
2023/10/26 08:37:25;;;;;;;169.13;71.05;;;;;;;8.01;100.00;99205.38;10445786;28;20123;-82
2023/10/26 08:42:25;;;;;;;153.68;66.25;;;;;;;8.01;100.00;99196.66;10465960;28;20468;-80
2023/10/26 08:47:26;;;;;;;161.32;66.70;;;;;;;8.32;100.00;99189.78;10458764;28;20037;-79
2023/10/26 08:52:26;;;;;;;145.65;64.50;;;;;;;8.66;100.00;99185.56;10434338;28;20037;-80
2023/10/26 08:57:27;;;;;;;128.40;56.17;;;;;;;8.57;100.00;99186.22;10455280;28;20041;-79
2023/10/26 09:02:27;;;;;;;118.97;53.10;;;;;;;8.74;100.00;99164.94;10456513;28;20555;-80
2023/10/26 09:07:28;;;;;;;107.15;50.25;;;;;;;9.26;100.00;99173.25;10445171;28;20119;-80
2023/10/26 09:12:28;;;;;;;86.70;42.95;;;;;;;9.83;100.00;99179.91;10443571;28;20056;-80
2023/10/26 09:17:30;;;;;;;66.05;34.20;;;;;;;9.78;100.00;99186.75;10436801;28;20047;-81
2023/10/26 09:22:37;;;;;;;59.63;32.53;;;;;;;10.00;100.00;99168.94;10445078;28;20093;-81
2023/10/26 09:27:38;;;;;;;50.42;30.98;;;;;;;10.36;100.00;99172.31;10473040;28;20051;-79
2023/10/26 09:32:39;;;;;;;41.83;28.40;;;;;;;10.41;100.00;99158.53;10471654;28;20041;-83
2023/10/26 09:37:50;;;;;;;39.38;26.40;;;;;;;10.76;100.00;99139.16;10456074;28;20151;-84
2023/10/26 09:42:51;;;;;;;37.35;24.67;;;;;;;10.57;100.00;99133.56;10459529;28;20464;-85
2023/10/26 09:47:51;;;;;;;38.15;24.88;;;;;;;10.42;100.00;99118.47;10464144;28;20041;-83
2023/10/26 09:52:52;;;;;;;40.30;25.08;;;;;;;10.45;100.00;99086.25;10442626;28;20032;-82
2023/10/26 09:58:05;;;;;;;42.47;24.45;;;;;;;10.53;100.00;99047.16;10446660;28;20120;-83
2023/10/26 10:03:09;;;;;;;37.70;23.73;;;;;;;10.91;100.00;99009.44;10447956;28;22230;-83
2023/10/26 10:08:09;;;;;;;35.05;24.35;;;;;;;11.59;100.00;98982.53;10429813;28;20041;-83
2023/10/26 10:13:10;;;;;;;28.52;20.75;;;;;;;11.85;100.00;98968.88;10414556;28;20155;-83
2023/10/26 10:18:11;;;;;;;36.70;23.30;;;;;;;11.58;100.00;98974.63;10477025;28;20116;-83
2023/10/26 10:23:29;;;;;;;35.22;24.10;;;;;;;11.68;100.00;98994.00;10439892;28;20495;-83
2023/10/26 10:28:40;;;;;;;38.20;21.63;;;;;;;12.05;100.00;98999.72;10435050;28;20036;-83
2023/10/26 10:33:41;;;;;;;34.63;22.77;;;;;;;12.51;100.00;99001.09;10457672;28;20074;-83
2023/10/26 10:38:41;;;;;;;35.60;24.70;;;;;;;12.11;100.00;99020.78;10464660;28;20548;-83
2023/10/26 10:43:45;;;;;;;34.78;23.65;;;;;;;11.73;100.00;99031.63;10458285;28;20124;-83
2023/10/26 10:48:58;;;;;;;36.20;22.90;;;;;;;11.75;100.00;99038.63;10469734;28;20060;-83
2023/10/26 10:53:59;;;;;;;37.15;23.58;;;;;;;11.69;100.00;99014.09;10486636;28;20074;-83
2023/10/26 10:58:59;;;;;;;35.35;22.38;;;;;;;11.50;100.00;99002.47;10445747;28;20094;-83
2023/10/26 11:04:04;;;;;;;39.20;23.88;;;;;;;11.29;100.00;99011.78;10468732;28;20171;-82
2023/10/26 11:09:04;;;;;;;40.72;26.55;;;;;;;11.28;100.00;99003.06;10468678;28;20124;-83
2023/10/26 11:14:12;;;;;;;40.42;26.65;;;;;;;11.30;100.00;98998.72;10445736;28;20376;-83
2023/10/26 11:19:12;;;;;;;42.10;27.05;;;;;;;12.14;100.00;98988.44;10481516;28;20064;-83
2023/10/26 11:24:17;;;;;;;38.28;26.75;;;;;;;13.39;100.00;98962.38;10452507;28;20571;-82
2023/10/26 11:29:18;;;;;;;39.58;26.08;;;;;;;13.96;100.00;98961.78;10437595;28;20045;-83
2023/10/26 11:34:21;;;;;;;26.83;19.38;;;;;;;14.13;100.00;98979.34;10472770;28;20036;-82
2023/10/26 11:39:22;;;;;;;24.10;17.27;;;;;;;13.46;100.00;99010.63;10450913;28;20060;-82
2023/10/26 11:44:24;;;;;;;25.08;15.82;;;;;;;12.77;100.00;99014.44;10479747;28;20141;-82
2023/10/26 11:49:39;;;;;;;;;;;;;;;11.95;100.00;99024.91;10434463;28;20037;-83
2023/10/26 11:54:51;;;;;;;13.50;9.10;;;;;;;11.43;100.00;99032.94;10465831;28;19924;-82
2023/10/26 11:59:52;;;;;;;10.82;7.93;;;;;;;11.28;100.00;99031.84;10450331;28;20033;-83
2023/10/26 12:04:52;;;;;;;13.30;7.60;;;;;;;11.26;100.00;99030.06;10447974;28;20065;-83
2023/10/26 12:09:53;;;;;;;13.35;7.65;;;;;;;11.07;100.00;99016.69;10458087;28;20040;-83
2023/10/26 12:14:53;;;;;;;14.02;7.65;;;;;;;11.12;100.00;99027.25;10451273;28;20059;-83
2023/10/26 12:19:54;;;;;;;13.27;8.77;;;;;;;11.05;100.00;99039.34;10439265;28;20131;-84
2023/10/26 12:24:54;;;;;;;16.55;8.25;;;;;;;11.06;100.00;99037.63;10468533;28;20629;-82
2023/10/26 12:29:55;;;;;;;13.52;8.10;;;;;;;11.33;100.00;99024.06;10458765;28;20094;-85
2023/10/26 12:34:55;;;;;;;14.73;7.82;;;;;;;11.84;100.00;99011.66;10456784;28;20048;-81
2023/10/26 12:39:56;;;;;;;13.13;9.30;;;;;;;12.15;100.00;98992.81;10494534;28;20091;-87
2023/10/26 12:44:57;;;;;;;12.25;7.57;;;;;;;12.38;100.00;98998.34;10460060;28;20553;-92
2023/10/26 12:49:57;;;;;;;11.68;8.25;;;;;;;12.41;100.00;98995.75;10442304;28;20033;-91
2023/10/26 12:54:58;;;;;;;13.15;9.38;;;;;;;12.53;100.00;99000.22;10445850;28;20147;-87
2023/10/26 12:59:58;;;;;;;13.57;8.10;;;;;;;12.58;100.00;98997.66;10469237;28;20041;-87
2023/10/26 13:04:59;;;;;;;13.90;8.80;;;;;;;13.00;100.00;98990.13;10459285;28;20045;-83
2023/10/26 13:09:59;;;;;;;14.45;10.80;;;;;;;13.04;100.00;98986.66;10454044;28;20449;-82
2023/10/26 13:15:00;;;;;;;15.10;9.70;;;;;;;13.29;100.00;98973.69;10442408;28;20075;-80
2023/10/26 13:20:00;;;;;;;14.23;10.15;;;;;;;13.10;100.00;98970.06;10446058;28;20373;-82
2023/10/26 13:25:01;;;;;;;13.98;9.45;;;;;;;12.75;100.00;98984.66;10455466;28;20128;-82
2023/10/26 13:30:01;;;;;;;15.18;10.43;;;;;;;12.44;100.00;98982.66;10451991;28;20136;-82
2023/10/26 13:35:02;;;;;;;12.80;9.88;;;;;;;11.94;100.00;98986.44;10452600;28;20063;-82
2023/10/26 13:40:04;;;;;;;12.10;8.52;;;;;;;11.72;100.00;98991.41;10429257;28;20045;-83
2023/10/26 13:45:05;;;;;;;13.68;9.20;;;;;;;11.54;100.00;99005.16;10453043;28;20044;-85
2023/10/26 13:50:06;;;;;;;17.48;10.57;;;;;;;11.47;100.00;99003.31;10447460;28;20037;-83
2023/10/26 13:55:07;;;;;;;14.07;9.70;;;;;;;11.57;100.00;99002.59;10470123;28;20044;-83
2023/10/26 14:00:08;;;;;;;12.48;7.90;;;;;;;11.51;100.00;98992.03;10444115;28;20033;-83
2023/10/26 14:05:09;;;;;;;15.18;8.50;;;;;;;11.60;100.00;98984.28;10452412;28;20110;-84
2023/10/26 14:10:10;;;;;;;13.98;9.10;;;;;;;11.70;100.00;98966.94;10456878;28;20354;-82
2023/10/26 14:15:10;;;;;;;12.65;8.43;;;;;;;11.86;100.00;98970.63;10483809;28;20048;-83
2023/10/26 14:20:11;;;;;;;10.93;8.10;;;;;;;11.85;100.00;98953.16;10470592;28;20501;-82
2023/10/26 14:25:11;;;;;;;14.15;9.23;;;;;;;11.83;100.00;98954.88;10465240;28;20098;-82
2023/10/26 14:30:12;;;;;;;12.10;9.07;;;;;;;11.80;100.00;98972.28;10458978;28;20066;-83
2023/10/26 14:35:13;;;;;;;15.05;8.55;;;;;;;11.66;100.00;98966.88;10455553;28;20036;-86
2023/10/26 14:40:14;;;;;;;19.42;8.35;;;;;;;11.51;100.00;98963.22;10469178;28;20041;-85
2023/10/26 14:45:14;;;;;;;12.63;7.13;;;;;;;11.25;100.00;98974.19;10453352;28;20040;-86
2023/10/26 14:50:15;;;;;;;11.18;7.28;;;;;;;11.10;100.00;98963.50;10444553;28;20178;-84
2023/10/26 14:55:16;;;;;;;11.73;7.10;;;;;;;11.08;100.00;98955.59;10430220;28;20045;-85
2023/10/26 15:00:16;;;;;;;13.82;6.68;;;;;;;11.07;100.00;98947.75;10452580;28;20503;-83
2023/10/26 15:05:17;;;;;;;12.35;7.05;;;;;;;10.96;100.00;98947.56;10446318;28;20617;-82
2023/10/26 15:10:17;;;;;;;13.18;6.60;;;;;;;10.79;100.00;98929.88;10467175;28;20062;-83
2023/10/26 15:15:18;;;;;;;13.30;5.97;;;;;;;10.83;100.00;98923.81;10450967;28;20518;-84
2023/10/26 15:20:18;;;;;;;10.70;6.50;;;;;;;10.74;100.00;98941.13;10460848;28;20132;-84
2023/10/26 15:25:19;;;;;;;11.52;7.03;;;;;;;10.63;100.00;98948.78;10445334;28;20047;-84
2023/10/26 15:30:20;;;;;;;19.33;8.90;;;;;;;10.56;100.00;98946.06;10446041;28;20049;-85
2023/10/26 15:35:20;;;;;;;9.43;5.95;;;;;;;10.50;100.00;98943.34;10462691;28;20091;-84
2023/10/26 15:40:21;;;;;;;6.70;5.50;;;;;;;10.37;100.00;98934.41;10477200;28;20044;-84
2023/10/26 15:45:21;;;;;;;7.75;5.65;;;;;;;10.24;100.00;98937.66;10435579;28;22343;-85
2023/10/26 15:50:22;;;;;;;11.48;7.03;;;;;;;10.09;100.00;98944.34;10471009;28;20135;-83
2023/10/26 15:55:25;;;;;;;8.60;5.15;;;;;;;9.97;100.00;98944.13;10467097;28;20482;-81
2023/10/26 16:00:25;;;;;;;8.00;5.10;;;;;;;9.91;100.00;98949.22;10444854;28;20506;-84
2023/10/26 16:05:26;;;;;;;10.02;4.90;;;;;;;9.81;100.00;98963.81;10464503;28;20136;-84
2023/10/26 16:10:26;;;;;;;9.15;3.88;;;;;;;9.69;100.00;98961.88;10449654;28;20178;-84
2023/10/26 16:15:27;;;;;;;9.88;5.05;;;;;;;9.63;100.00;98978.28;10470567;28;20037;-83
2023/10/26 16:20:27;;;;;;;7.28;4.25;;;;;;;9.54;100.00;98983.31;10441619;28;20127;-83
2023/10/26 16:25:31;;;;;;;11.55;4.47;;;;;;;9.46;100.00;98991.00;10454671;28;20123;-82
2023/10/26 16:30:32;;;;;;;8.40;4.50;;;;;;;9.42;100.00;98991.78;10466719;28;20040;-84
2023/10/26 16:35:33;;;;;;;25.75;5.25;;;;;;;9.38;100.00;98998.63;10465781;28;20415;-83
2023/10/26 16:40:33;;;;;;;6.88;4.13;;;;;;;9.36;100.00;99002.06;10458729;28;20052;-83
2023/10/26 16:45:35;;;;;;;7.93;4.65;;;;;;;9.35;100.00;99011.63;10428319;28;20055;-82
2023/10/26 16:50:36;;;;;;;9.38;4.55;;;;;;;9.33;100.00;98999.38;10446352;28;20366;-82
2023/10/26 16:55:36;;;;;;;9.05;5.05;;;;;;;9.30;100.00;99008.03;10442067;28;20127;-84
2023/10/26 17:00:37;;;;;;;12.57;6.72;;;;;;;9.30;100.00;99010.63;10453925;28;20037;-84
2023/10/26 17:05:37;;;;;;;8.95;5.10;;;;;;;9.25;100.00;99007.03;10464897;28;20391;-85
2023/10/26 17:10:40;;;;;;;11.68;6.68;;;;;;;9.25;100.00;99010.53;10476788;28;20075;-85
2023/10/26 17:15:41;;;;;;;13.15;7.03;;;;;;;9.23;100.00;99016.56;10451354;28;20029;-85
2023/10/26 17:20:41;;;;;;;11.40;7.63;;;;;;;9.21;100.00;99006.09;10471649;28;20037;-85
2023/10/26 17:25:42;;;;;;;14.15;8.65;;;;;;;9.24;100.00;99007.88;10438742;28;20152;-86
2023/10/26 17:30:42;;;;;;;20.80;10.07;;;;;;;9.31;100.00;99004.56;10455939;28;20116;-85
2023/10/26 17:35:47;;;;;;;15.50;10.52;;;;;;;9.30;100.00;98999.31;10471701;28;20124;-85
2023/10/26 17:40:47;;;;;;;16.60;10.80;;;;;;;9.20;100.00;99012.16;10455961;28;20479;-85
2023/10/26 17:45:54;;;;;;;16.05;9.43;;;;;;;9.26;100.00;98998.34;10461569;28;20041;-84
2023/10/26 17:50:55;;;;;;;21.15;12.15;;;;;;;9.35;100.00;98990.72;10444163;28;20053;-84
2023/10/26 17:55:59;;;;;;;17.83;12.38;;;;;;;9.32;100.00;98987.19;10457284;28;20041;-84
2023/10/26 18:01:06;;;;;;;20.08;14.45;;;;;;;9.30;100.00;98989.75;10436652;28;20056;-83
2023/10/26 18:06:07;;;;;;;19.15;13.05;;;;;;;9.29;100.00;98992.34;10400084;28;20041;-84
2023/10/26 18:11:08;;;;;;;20.75;13.38;;;;;;;9.27;100.00;98992.28;10393832;28;20029;-84
2023/10/26 18:16:08;;;;;;;18.98;12.35;;;;;;;9.30;100.00;98984.53;10412697;28;20044;-83
2023/10/26 18:21:10;;;;;;;19.27;11.18;;;;;;;9.23;100.00;98991.34;10386981;28;20042;-83
2023/10/26 18:26:12;;;;;;;17.90;12.40;;;;;;;9.09;100.00;98977.97;10380321;28;20040;-83
2023/10/26 18:31:14;;;;;;;20.60;12.82;;;;;;;8.95;100.00;98981.97;10439554;28;20480;-82
2023/10/26 18:36:18;;;;;;;22.67;13.68;;;;;;;8.78;100.00;98984.19;10451259;28;20086;-84
2023/10/26 18:41:25;;;;;;;21.98;14.98;;;;;;;8.52;100.00;98981.81;10461586;28;20094;-84
2023/10/26 18:46:26;;;;;;;19.13;14.02;;;;;;;8.41;100.00;98981.50;10461393;28;20514;-83
2023/10/26 18:51:26;;;;;;;21.35;15.10;;;;;;;8.45;100.00;98972.03;10452562;28;20124;-84
2023/10/26 18:56:27;;;;;;;30.10;17.45;;;;;;;8.47;100.00;98970.34;10434739;28;20186;-83
2023/10/26 19:01:32;;;;;;;25.67;17.10;;;;;;;8.52;100.00;98974.84;10439804;28;20055;-82
2023/10/26 19:06:32;;;;;;;28.08;16.10;;;;;;;8.53;100.00;98970.53;10446376;28;20537;-84
2023/10/26 19:11:33;;;;;;;23.73;14.40;;;;;;;8.47;100.00;98973.81;10448517;28;20043;-83
2023/10/26 19:16:33;;;;;;;25.90;15.88;;;;;;;8.43;100.00;98976.31;10445566;28;20493;-83
2023/10/26 19:21:34;;;;;;;28.20;17.38;;;;;;;8.34;100.00;98977.84;10455866;28;20115;-84
2023/10/26 19:26:34;;;;;;;28.80;15.88;;;;;;;8.25;100.00;98987.13;10470511;28;20393;-83
2023/10/26 19:31:35;;;;;;;26.20;16.35;;;;;;;8.01;100.00;98976.09;10450815;28;20045;-83
2023/10/26 19:36:35;;;;;;;115.65;30.20;;;;;;;7.94;100.00;98961.16;10454936;28;20590;-84
2023/10/26 19:41:36;;;;;;;39.88;20.65;;;;;;;7.89;100.00;98965.34;10476237;28;20036;-83
2023/10/26 19:46:38;;;;;;;32.38;20.58;;;;;;;7.83;100.00;98968.66;10467896;28;20115;-84
2023/10/26 19:51:39;;;;;;;33.28;20.20;;;;;;;7.89;100.00;98973.16;10475908;28;20048;-83
2023/10/26 19:56:39;;;;;;;35.85;20.67;;;;;;;7.95;100.00;98965.50;10459254;28;20040;-83
2023/10/26 20:01:39;;;;;;;41.40;22.98;;;;;;;7.88;100.00;98961.84;10448166;28;20132;-83
2023/10/26 20:06:40;;;;;;;136.82;30.58;;;;;;;7.77;100.00;98952.84;10458755;28;20425;-83
2023/10/26 20:11:41;;;;;;;50.10;25.95;;;;;;;7.78;100.00;98949.41;10468184;28;20123;-84
2023/10/26 20:16:41;;;;;;;46.33;26.08;;;;;;;7.85;100.00;98942.66;10453238;28;20071;-84
2023/10/26 20:21:43;;;;;;;56.13;28.48;;;;;;;7.85;100.00;98937.44;10481375;28;20032;-83
2023/10/26 20:26:44;;;;;;;41.05;22.13;;;;;;;7.74;100.00;98934.53;10468184;28;20106;-83
2023/10/26 20:31:44;;;;;;;61.53;21.25;;;;;;;7.74;100.00;98937.13;10468815;28;20076;-83
2023/10/26 20:36:46;;;;;;;56.50;23.73;;;;;;;7.79;100.00;98931.22;10455042;28;20120;-83
2023/10/26 20:41:46;;;;;;;49.30;24.92;;;;;;;7.87;100.00;98925.34;10442076;28;20041;-83
2023/10/26 20:46:46;;;;;;;37.20;22.95;;;;;;;7.88;100.00;98922.78;10455232;28;20043;-83
2023/10/26 20:51:47;;;;;;;55.88;28.45;;;;;;;7.94;100.00;98920.34;10452883;28;20115;-83
2023/10/26 20:56:48;;;;;;;52.53;30.42;;;;;;;7.98;100.00;98910.00;10459382;28;20120;-84
2023/10/26 21:01:48;;;;;;;89.55;42.53;;;;;;;8.10;100.00;98901.63;10459080;28;20549;-83
2023/10/26 21:06:49;;;;;;;62.55;31.70;;;;;;;8.11;100.00;98904.25;10477008;28;20132;-83
2023/10/26 21:11:50;;;;;;;74.63;38.10;;;;;;;8.15;100.00;98906.09;10470756;28;20091;-83
2023/10/26 21:16:50;;;;;;;79.28;40.75;;;;;;;8.34;100.00;98899.66;10457510;28;20044;-83
2023/10/26 21:21:51;;;;;;;91.20;42.97;;;;;;;8.38;100.00;98893.69;10471343;28;20132;-83
2023/10/26 21:26:52;;;;;;;90.40;42.75;;;;;;;8.44;100.00;98892.06;10465344;28;20090;-83
2023/10/26 21:31:52;;;;;;;75.00;39.70;;;;;;;8.51;100.00;98876.63;10457504;28;20441;-82
2023/10/26 21:36:53;;;;;;;78.55;37.50;;;;;;;8.52;100.00;98875.78;10474389;28;20120;-82
2023/10/26 21:41:53;;;;;;;62.63;34.80;;;;;;;8.52;100.00;98872.31;10465533;28;20033;-80
2023/10/26 21:46:54;;;;;;;67.70;35.72;;;;;;;8.52;100.00;98862.75;10463563;28;20548;-81
2023/10/26 21:51:54;;;;;;;82.05;38.42;;;;;;;8.56;100.00;98863.72;10455680;28;20048;-82
2023/10/26 21:56:55;;;;;;;72.93;37.80;;;;;;;8.60;100.00;98859.44;10463283;28;20051;-81
2023/10/26 22:01:55;;;;;;;48.40;27.88;;;;;;;8.78;100.00;98854.63;10466928;28;20131;-81
2023/10/26 22:06:56;;;;;;;62.53;31.35;;;;;;;8.69;100.00;98858.78;10457867;28;20037;-82
2023/10/26 22:11:56;;;;;;;54.88;29.40;;;;;;;8.66;100.00;98860.47;10469673;28;20131;-82
2023/10/26 22:16:57;;;;;;;50.08;27.35;;;;;;;8.65;100.00;98855.22;10458879;28;20460;-82
2023/10/26 22:21:57;;;;;;;52.35;25.25;;;;;;;8.60;100.00;98846.41;10445102;28;20123;-82
2023/10/26 22:26:58;;;;;;;50.83;27.98;;;;;;;8.56;100.00;98842.84;10465961;28;20071;-82
2023/10/26 22:31:59;;;;;;;52.92;27.45;;;;;;;8.52;100.00;98835.81;10480001;28;20054;-82
2023/10/26 22:36:59;;;;;;;55.00;28.95;;;;;;;8.56;100.00;98835.03;10466363;28;20048;-81
2023/10/26 22:42:00;;;;;;;54.03;29.65;;;;;;;8.61;100.00;98832.50;10478484;28;20136;-83
2023/10/26 22:47:00;;;;;;;58.20;31.25;;;;;;;8.62;100.00;98829.97;10464613;28;20132;-82